Time;durP1;ratioP1;P1;durP2;ratioP2;P2;SDS_P1;SDS_P2;PMS_P1;PMS_P2;Temp;Humidity;BMP_temperature;BMP_pressure;BME280_temperature;BME280_humidity;BME280_pressure;Samples;Min_cycle;Max_cycle;Signal;HPM_P1;HPM_P2
2023/01/15 00:01:25;;;;;;;5.65;2.63;;;;;;;6.32;60.16;97880.69;4967133;28;20022;-68
2023/01/15 00:03:52;;;;;;;5.35;1.90;;;;;;;6.35;59.99;97886.41;4965682;28;20086;-68
2023/01/15 00:06:19;;;;;;;5.03;2.15;;;;;;;6.38;60.07;97887.75;4988075;28;20092;-67
2023/01/15 00:08:45;;;;;;;6.88;2.65;;;;;;;6.39;60.20;97889.38;4968879;28;20494;-68
2023/01/15 00:11:10;;;;;;;7.18;2.70;;;;;;;6.41;60.18;97884.44;4968129;28;20034;-68
2023/01/15 00:13:36;;;;;;;5.68;2.42;;;;;;;6.44;59.72;97891.25;4968233;28;20023;-68
2023/01/15 00:16:15;;;;;;;7.43;3.10;;;;;;;6.42;59.93;97880.63;4967888;28;20057;-67
2023/01/15 00:18:41;;;;;;;;;;;;;;;6.44;59.17;97877.63;4967239;28;20042;-67
2023/01/15 00:21:10;;;;;;;9.15;2.85;;;;;;;6.43;59.68;97878.72;4966298;28;19918;-68
2023/01/15 00:29:09;;;;;;;8.60;4.30;;;;;;;6.37;59.28;97883.38;4967966;28;20042;-67
2023/01/15 00:31:35;;;;;;;9.07;4.30;;;;;;;6.35;59.45;97875.50;4967766;28;20019;-68
2023/01/15 00:34:01;;;;;;;8.07;3.63;;;;;;;6.35;59.59;97874.69;4966071;28;20034;-68
2023/01/15 00:36:26;;;;;;;6.45;2.70;;;;;;;6.35;59.66;97871.97;4967135;28;20035;-67
2023/01/15 00:38:52;;;;;;;6.15;2.75;;;;;;;6.36;59.88;97868.13;4967720;28;20109;-68
2023/01/15 00:41:17;;;;;;;5.72;2.83;;;;;;;6.36;59.49;97866.25;4967446;28;20479;-68
2023/01/15 00:43:43;;;;;;;9.95;4.65;;;;;;;6.37;59.85;97867.88;4974297;28;20022;-68
2023/01/15 00:46:09;;;;;;;10.88;4.38;;;;;;;6.39;59.37;97870.31;4967543;28;20031;-68
2023/01/15 00:48:35;;;;;;;6.90;3.03;;;;;;;6.39;59.58;97864.84;4967638;28;20720;-68
2023/01/15 00:51:01;;;;;;;5.43;2.60;;;;;;;6.40;59.62;97859.13;4967265;28;20530;-68
2023/01/15 00:53:27;;;;;;;5.68;2.83;;;;;;;6.42;58.91;97850.66;4984548;28;20053;-68
2023/01/15 00:55:52;;;;;;;6.28;3.20;;;;;;;6.43;59.15;97837.88;4967450;28;20479;-68
2023/01/15 00:58:17;;;;;;;5.63;3.08;;;;;;;6.45;58.79;97841.13;4967327;28;20042;-68
2023/01/15 01:00:43;;;;;;;7.47;3.78;;;;;;;6.46;59.51;97837.31;4966914;28;20050;-68
2023/01/15 01:03:08;;;;;;;12.15;5.38;;;;;;;6.46;59.03;97832.66;4974354;28;20413;-67
2023/01/15 01:05:34;;;;;;;16.52;6.05;;;;;;;6.46;59.42;97834.59;4969997;28;20031;-67
2023/01/15 01:07:59;;;;;;;6.38;2.97;;;;;;;6.46;59.59;97827.22;4977092;28;20023;-68
2023/01/15 01:10:25;;;;;;;7.38;3.60;;;;;;;6.48;58.83;97826.94;4967632;28;20109;-68
2023/01/15 01:12:51;;;;;;;8.63;4.00;;;;;;;6.48;58.92;97825.03;4966754;28;20035;-68
2023/01/15 01:15:20;;;;;;;7.15;3.60;;;;;;;6.46;59.32;97826.41;4967403;28;20033;-67
2023/01/15 01:17:46;;;;;;;6.55;3.67;;;;;;;6.46;59.24;97827.22;4970647;28;20089;-68
2023/01/15 01:20:13;;;;;;;7.55;3.67;;;;;;;6.47;59.23;97828.03;4967080;28;20422;-68
2023/01/15 01:22:39;;;;;;;5.88;2.58;;;;;;;6.47;58.91;97823.41;4966953;28;20043;-68
2023/01/15 01:25:05;;;;;;;5.80;3.22;;;;;;;6.50;59.20;97822.03;4967336;28;20037;-68
2023/01/15 01:27:31;;;;;;;8.75;4.03;;;;;;;6.51;58.93;97813.56;4985193;28;20078;-68
2023/01/15 01:29:56;;;;;;;15.77;5.97;;;;;;;6.51;59.21;97810.84;4965759;28;20023;-68
2023/01/15 01:32:21;;;;;;;5.15;2.90;;;;;;;6.53;58.69;97810.53;4966631;28;20088;-68
2023/01/15 01:34:47;;;;;;;7.68;3.75;;;;;;;6.53;58.96;97805.91;4966973;28;20022;-68
2023/01/15 01:37:12;;;;;;;4.43;2.67;;;;;;;6.54;59.05;97795.81;4967810;28;20027;-68
2023/01/15 01:39:37;;;;;;;5.15;2.90;;;;;;;6.56;58.91;97788.16;4966315;28;20110;-67
2023/01/15 01:42:03;;;;;;;5.55;2.75;;;;;;;6.58;59.16;97777.78;4965982;28;20114;-67
2023/01/15 01:44:31;;;;;;;4.75;2.58;;;;;;;6.60;58.71;97767.41;4967549;28;20035;-67
2023/01/15 01:46:57;;;;;;;5.05;2.75;;;;;;;6.62;58.68;97780.78;4967007;28;20062;-68
2023/01/15 01:49:23;;;;;;;5.18;3.15;;;;;;;6.62;58.72;97767.94;4967629;28;20030;-67
2023/01/15 01:51:58;;;;;;;5.03;2.80;;;;;;;6.63;58.67;97758.69;4969977;28;20062;-67
2023/01/15 01:54:25;;;;;;;7.20;3.97;;;;;;;6.66;59.00;97765.47;4969987;28;20062;-68
2023/01/15 01:56:51;;;;;;;5.00;2.40;;;;;;;6.68;58.88;97758.63;4969038;28;20062;-68
2023/01/15 01:59:19;;;;;;;4.97;2.60;;;;;;;6.69;58.86;97749.34;4970760;28;20432;-68
2023/01/15 02:01:45;;;;;;;4.32;2.47;;;;;;;6.69;58.36;97738.47;4970092;28;20039;-68
2023/01/15 02:04:11;;;;;;;5.80;3.20;;;;;;;6.71;58.45;97730.00;4968927;28;20036;-67
2023/01/15 02:06:40;;;;;;;3.95;2.67;;;;;;;6.71;58.74;97740.91;4967231;28;20038;-68
2023/01/15 02:09:05;;;;;;;3.13;2.25;;;;;;;6.73;58.92;97726.97;4971587;28;20046;-68
2023/01/15 02:11:33;;;;;;;3.85;2.53;;;;;;;6.72;58.43;97720.72;4967978;28;20039;-67
2023/01/15 02:14:08;;;;;;;4.38;2.65;;;;;;;6.72;58.82;97719.91;4971752;28;20034;-68
2023/01/15 02:16:52;;;;;;;5.00;2.22;;;;;;;6.72;58.51;97718.00;4970630;28;20138;-67
2023/01/15 02:19:50;;;;;;;4.85;2.50;;;;;;;6.70;58.51;97704.66;4967578;28;20023;-71
2023/01/15 02:22:42;;;;;;;3.70;2.10;;;;;;;6.73;58.50;97716.88;4970355;28;20041;-68
2023/01/15 02:25:27;;;;;;;3.38;2.30;;;;;;;6.73;58.13;97697.81;4979886;28;20395;-69
2023/01/15 02:28:00;;;;;;;3.50;2.20;;;;;;;6.78;58.56;97696.94;4969201;28;20360;-68
2023/01/15 02:30:39;;;;;;;4.13;2.30;;;;;;;6.81;58.47;97696.38;4969471;28;20043;-69
2023/01/15 02:33:16;;;;;;;4.72;2.50;;;;;;;6.82;58.30;97693.34;4967746;28;20022;-68
2023/01/15 02:35:49;;;;;;;4.60;2.47;;;;;;;6.86;57.87;97712.66;4968353;28;20027;-67
2023/01/15 02:38:20;;;;;;;4.32;2.20;;;;;;;6.89;58.28;97711.25;4969101;28;20050;-67
2023/01/15 02:40:50;;;;;;;4.88;2.15;;;;;;;6.94;57.70;97713.94;4975621;28;20558;-68
2023/01/15 02:43:17;;;;;;;3.20;2.15;;;;;;;6.98;58.18;97701.34;4967907;28;20026;-67
2023/01/15 02:45:45;;;;;;;4.63;2.15;;;;;;;7.02;58.22;97704.28;4978655;28;20027;-67
2023/01/15 02:48:17;;;;;;;3.45;2.00;;;;;;;7.06;58.51;97708.88;4967792;28;20030;-68
2023/01/15 02:50:48;;;;;;;5.25;2.30;;;;;;;7.11;58.01;97705.28;4969295;28;20019;-68
2023/01/15 02:53:20;;;;;;;4.35;2.78;;;;;;;7.15;58.25;97703.59;4967651;28;20105;-67
2023/01/15 02:55:49;;;;;;;2.90;1.90;;;;;;;7.18;57.29;97699.44;4968753;28;20084;-67
2023/01/15 02:58:22;;;;;;;2.95;1.88;;;;;;;7.20;58.01;97703.53;4967612;28;20077;-67
2023/01/15 03:00:51;;;;;;;3.33;2.05;;;;;;;7.22;57.55;97698.59;4965204;28;20510;-67
2023/01/15 03:03:56;;;;;;;3.78;2.42;;;;;;;7.24;56.85;97701.03;4968326;28;20072;-68
2023/01/15 03:06:54;;;;;;;4.93;2.17;;;;;;;7.25;57.46;97702.63;4979021;28;20096;-67
2023/01/15 03:09:20;;;;;;;3.35;2.03;;;;;;;7.29;57.61;97704.50;4972168;28;20285;-68
2023/01/15 03:12:02;;;;;;;2.88;1.90;;;;;;;7.32;57.43;97699.56;4968688;28;20495;-68
2023/01/15 03:14:37;;;;;;;4.25;2.10;;;;;;;7.35;56.39;97699.78;4969435;28;20026;-67
2023/01/15 03:17:16;;;;;;;4.40;2.15;;;;;;;7.39;56.79;97695.38;4968721;28;20553;-67
2023/01/15 03:19:54;;;;;;;2.10;1.80;;;;;;;7.41;57.22;97686.88;4968661;28;20031;-68
2023/01/15 03:22:29;;;;;;;2.35;1.67;;;;;;;7.44;57.27;97687.13;4986219;28;20030;-67
2023/01/15 03:24:59;;;;;;;2.22;1.50;;;;;;;7.50;57.42;97670.66;4967376;28;20042;-68
2023/01/15 03:27:26;;;;;;;4.63;2.10;;;;;;;7.52;57.28;97674.72;4968207;28;20023;-67
2023/01/15 03:29:57;;;;;;;3.00;1.65;;;;;;;7.51;57.49;97667.63;4966836;28;20026;-68
2023/01/15 03:32:22;;;;;;;2.50;1.98;;;;;;;7.55;57.68;97665.13;4967916;28;20038;-68
2023/01/15 03:34:50;;;;;;;2.95;1.77;;;;;;;7.54;57.38;97666.25;4969761;28;20475;-67
2023/01/15 03:37:17;;;;;;;4.05;2.50;;;;;;;7.54;57.87;97661.59;4967641;28;20038;-68
2023/01/15 03:39:43;;;;;;;4.47;2.08;;;;;;;7.55;58.58;97659.66;4968442;28;20023;-68
2023/01/15 03:42:17;;;;;;;4.25;2.20;;;;;;;7.58;58.72;97661.78;4969345;28;20077;-68
2023/01/15 03:45:10;;;;;;;3.40;2.10;;;;;;;7.59;59.20;97666.97;4969233;28;20030;-68
2023/01/15 03:47:50;;;;;;;2.85;1.92;;;;;;;7.60;59.03;97674.06;5024794;28;20029;-68
2023/01/15 03:50:37;;;;;;;2.97;2.05;;;;;;;7.62;58.60;97676.47;4983566;28;20038;-67
2023/01/15 03:53:20;;;;;;;3.17;2.10;;;;;;;7.61;59.15;97672.13;4967009;28;20467;-68
2023/01/15 03:56:10;;;;;;;2.78;1.98;;;;;;;7.62;58.99;97672.94;4968628;28;20035;-67
2023/01/15 03:58:59;;;;;;;3.25;2.60;;;;;;;7.62;59.22;97667.50;4966541;28;20470;-67
2023/01/15 04:01:31;;;;;;;3.55;2.35;;;;;;;7.64;59.09;97663.34;5007017;28;20042;-67
2023/01/15 04:03:58;;;;;;;3.55;2.70;;;;;;;7.65;59.54;97675.88;4968587;28;20041;-68
2023/01/15 04:06:26;;;;;;;2.60;2.08;;;;;;;7.63;59.94;97663.66;4967505;28;20062;-67
2023/01/15 04:08:53;;;;;;;3.05;2.20;;;;;;;7.64;59.98;97657.88;4968890;28;20035;-68
2023/01/15 04:11:23;;;;;;;2.88;2.00;;;;;;;7.66;59.74;97647.47;4969145;28;20027;-67
2023/01/15 04:13:49;;;;;;;3.65;1.95;;;;;;;7.65;60.07;97643.13;4969181;28;20022;-68
2023/01/15 04:16:22;;;;;;;3.55;1.80;;;;;;;7.64;60.26;97649.69;5007891;28;20077;-68
2023/01/15 04:18:48;;;;;;;2.13;1.52;;;;;;;7.64;59.99;97636.06;4967907;28;20034;-68
2023/01/15 04:21:13;;;;;;;2.42;1.88;;;;;;;7.65;60.56;97640.41;4968058;28;20037;-68
2023/01/15 04:23:38;;;;;;;3.00;2.10;;;;;;;7.64;60.34;97640.72;4968205;28;20034;-68
2023/01/15 04:26:06;;;;;;;3.97;2.10;;;;;;;7.63;60.84;97631.69;4967393;28;20485;-68
2023/01/15 04:28:32;;;;;;;2.55;1.70;;;;;;;7.65;60.98;97628.69;4967874;28;20483;-67
2023/01/15 04:30:58;;;;;;;3.80;2.00;;;;;;;7.64;60.80;97613.44;4967600;28;20046;-67
2023/01/15 04:33:24;;;;;;;2.38;1.92;;;;;;;7.64;60.99;97614.22;4966637;28;20427;-68
2023/01/15 04:35:49;;;;;;;3.92;2.00;;;;;;;7.64;61.12;97606.03;4968570;28;20061;-67
2023/01/15 04:38:16;;;;;;;3.53;2.65;;;;;;;7.64;60.99;97611.50;4967767;28;20105;-67
2023/01/15 04:46:10;;;;;;;3.15;1.90;;;;;;;7.68;60.90;97619.91;4967643;28;20061;-67
2023/01/15 04:48:38;;;;;;;3.55;1.90;;;;;;;7.69;60.99;97621.53;4964578;28;20046;-67
2023/01/15 04:51:04;;;;;;;2.35;1.60;;;;;;;7.67;60.67;97619.09;4983432;28;20012;-67
2023/01/15 04:53:30;;;;;;;2.58;1.65;;;;;;;7.65;60.94;97615.03;4992684;28;20030;-67
2023/01/15 04:56:02;;;;;;;3.58;1.80;;;;;;;7.64;61.04;97603.31;4968934;28;20027;-67
2023/01/15 04:58:28;;;;;;;2.97;1.67;;;;;;;7.64;61.20;97597.84;4967755;28;20027;-67
2023/01/15 05:00:54;;;;;;;3.42;2.50;;;;;;;7.63;60.79;97600.88;4964880;28;20042;-67
2023/01/15 05:03:19;;;;;;;3.10;1.63;;;;;;;7.60;60.63;97607.72;4965479;28;20114;-67
2023/01/15 05:05:45;;;;;;;2.78;1.65;;;;;;;7.56;61.05;97615.72;4968059;28;20117;-67
2023/01/15 05:08:10;;;;;;;2.30;1.70;;;;;;;7.53;60.95;97608.13;4966448;28;20042;-67
2023/01/15 05:10:35;;;;;;;2.40;1.70;;;;;;;7.50;60.88;97592.34;4968299;28;20049;-67
2023/01/15 05:13:01;;;;;;;1.92;1.70;;;;;;;7.46;61.34;97585.84;4967323;28;20045;-67
2023/01/15 05:15:26;;;;;;;3.30;1.98;;;;;;;7.44;60.94;97583.44;4967545;28;20041;-67
2023/01/15 05:17:51;;;;;;;4.30;2.08;;;;;;;7.42;61.08;97580.19;4966188;28;20109;-67
2023/01/15 05:20:17;;;;;;;3.17;1.98;;;;;;;7.38;60.85;97591.97;4967828;28;20033;-67
2023/01/15 05:22:42;;;;;;;4.03;1.80;;;;;;;7.34;60.79;97585.50;4964542;28;20051;-67
2023/01/15 05:25:08;;;;;;;3.50;2.05;;;;;;;7.29;60.88;97579.03;4967327;28;20031;-67
2023/01/15 05:27:33;;;;;;;4.20;2.60;;;;;;;7.28;60.62;97580.16;4967801;28;20035;-67
2023/01/15 05:29:59;;;;;;;2.90;2.28;;;;;;;7.23;60.74;97563.84;4967953;28;20045;-67
2023/01/15 05:32:24;;;;;;;3.20;2.28;;;;;;;7.22;60.13;97558.69;4972767;28;20110;-67
2023/01/15 05:34:49;;;;;;;3.95;2.20;;;;;;;7.19;60.76;97554.63;4966962;28;20762;-68
2023/01/15 05:37:15;;;;;;;2.72;2.13;;;;;;;7.15;60.22;97564.53;4960712;28;20062;-68
2023/01/15 05:39:40;;;;;;;3.47;2.13;;;;;;;7.11;60.74;97561.59;4966998;28;20035;-67
2023/01/15 05:42:06;;;;;;;2.92;2.10;;;;;;;7.08;60.62;97556.72;4965379;28;20038;-67
2023/01/15 05:44:32;;;;;;;2.90;2.35;;;;;;;7.05;60.39;97561.94;4967346;28;20046;-67
2023/01/15 05:47:01;;;;;;;3.55;2.58;;;;;;;7.00;60.45;97573.72;4967022;28;20092;-68
2023/01/15 05:49:30;;;;;;;2.40;1.92;;;;;;;6.98;60.56;97575.94;4965390;28;20034;-67
2023/01/15 05:51:56;;;;;;;3.40;3.10;;;;;;;6.97;60.58;97566.94;4968076;28;20031;-67
2023/01/15 05:54:26;;;;;;;5.88;4.30;;;;;;;6.95;60.27;97560.16;4970433;28;20454;-67
2023/01/15 05:56:52;;;;;;;;;;;;;;;6.94;60.69;97553.91;5030991;28;20089;-67
2023/01/15 05:59:19;;;;;;;7.22;3.78;;;;;;;6.93;60.09;97565.09;4966548;28;19934;-68
2023/01/15 06:01:45;;;;;;;7.85;4.75;;;;;;;6.89;60.60;97564.91;4966435;28;20077;-67
2023/01/15 06:04:16;;;;;;;6.70;3.88;;;;;;;6.91;60.53;97564.59;4966789;28;20022;-67
2023/01/15 06:06:42;;;;;;;4.30;2.80;;;;;;;6.90;61.00;97565.69;4968035;28;20035;-67
2023/01/15 06:09:07;;;;;;;5.78;2.80;;;;;;;6.88;60.38;97549.66;4967676;28;20132;-67
2023/01/15 06:11:33;;;;;;;4.40;2.95;;;;;;;6.88;60.43;97552.38;4967672;28;20042;-67
2023/01/15 06:13:59;;;;;;;5.72;3.53;;;;;;;6.87;60.14;97552.66;4967956;28;20105;-67
2023/01/15 06:16:24;;;;;;;4.68;2.95;;;;;;;6.87;60.40;97555.38;4967686;28;20550;-67
2023/01/15 06:18:50;;;;;;;6.28;3.10;;;;;;;6.84;60.20;97560.31;4967763;28;20042;-67
2023/01/15 06:21:15;;;;;;;4.70;2.83;;;;;;;6.83;60.69;97547.78;4967232;28;20031;-67
2023/01/15 06:23:42;;;;;;;6.13;3.92;;;;;;;6.84;60.34;97543.97;4967272;28;20117;-68
2023/01/15 06:26:12;;;;;;;5.20;3.35;;;;;;;6.85;60.43;97539.34;4967203;28;20023;-67
2023/01/15 06:28:37;;;;;;;7.95;4.00;;;;;;;6.87;60.48;97536.28;4967531;28;20031;-67
2023/01/15 06:31:05;;;;;;;5.85;3.42;;;;;;;6.89;60.57;97545.00;4966910;28;20392;-68
2023/01/15 06:33:30;;;;;;;4.75;3.38;;;;;;;6.89;60.51;97542.28;4986862;28;20032;-67
2023/01/15 06:35:56;;;;;;;7.80;3.58;;;;;;;6.91;60.51;97545.50;5068874;28;20435;-68
2023/01/15 06:38:21;;;;;;;6.05;3.47;;;;;;;6.89;60.58;97542.28;5021004;28;20031;-67
2023/01/15 06:40:46;;;;;;;6.82;3.67;;;;;;;6.90;60.48;97550.16;4969705;28;20037;-68
2023/01/15 06:48:51;;;;;;;12.02;6.60;;;;;;;6.90;60.27;97565.69;4932626;28;20040;-68
2023/01/15 06:51:19;;;;;;;8.43;5.20;;;;;;;6.90;60.52;97571.16;4969483;28;20622;-67
2023/01/15 06:53:45;;;;;;;10.27;5.72;;;;;;;6.89;60.06;97567.63;4969389;28;20037;-68
2023/01/15 06:56:13;;;;;;;13.13;5.75;;;;;;;6.90;60.22;97562.97;4970114;28;20019;-68
2023/01/15 06:58:40;;;;;;;9.18;5.22;;;;;;;6.90;60.18;97569.25;5020352;28;20119;-68
2023/01/15 07:01:11;;;;;;;10.48;5.30;;;;;;;6.88;59.97;97563.28;4983393;28;20031;-67
2023/01/15 07:03:36;;;;;;;10.98;5.45;;;;;;;6.88;60.25;97573.34;4968631;28;20045;-68
2023/01/15 07:06:12;;;;;;;11.68;5.97;;;;;;;6.88;60.26;97565.19;4968077;28;20027;-67
2023/01/15 07:08:38;;;;;;;10.32;6.25;;;;;;;6.89;60.20;97574.97;4968866;28;20415;-67
2023/01/15 07:11:06;;;;;;;10.25;6.32;;;;;;;6.88;59.97;97581.53;4965292;28;20035;-68
2023/01/15 07:13:31;;;;;;;15.05;7.28;;;;;;;6.88;60.31;97579.63;4966506;28;20047;-68
2023/01/15 07:15:59;;;;;;;11.35;5.72;;;;;;;6.87;59.98;97585.34;4970184;28;20031;-68
2023/01/15 07:18:25;;;;;;;7.95;3.97;;;;;;;6.85;59.67;97585.66;4970044;28;20031;-68
2023/01/15 07:20:55;;;;;;;7.47;4.07;;;;;;;6.83;59.82;97580.50;4968234;28;20122;-68
2023/01/15 07:23:21;;;;;;;6.28;3.58;;;;;;;6.81;59.66;97574.53;4966805;28;20032;-67
2023/01/15 07:25:46;;;;;;;7.18;4.32;;;;;;;6.79;59.72;97576.72;5024537;28;20525;-68
2023/01/15 07:28:11;;;;;;;6.78;3.70;;;;;;;6.79;59.65;97578.66;4968737;28;20106;-68
2023/01/15 07:30:37;;;;;;;5.95;4.28;;;;;;;6.76;59.92;97574.59;4967388;28;20034;-67
2023/01/15 07:33:02;;;;;;;10.32;4.80;;;;;;;6.77;59.98;97575.41;4968910;28;20540;-68
2023/01/15 07:35:29;;;;;;;7.80;4.60;;;;;;;6.78;59.90;97577.84;4968794;28;20392;-67
2023/01/15 07:37:55;;;;;;;8.68;4.93;;;;;;;6.78;59.69;97577.03;4968291;28;20027;-67
2023/01/15 07:40:20;;;;;;;7.38;3.95;;;;;;;6.77;59.72;97565.31;4964433;28;20042;-68
2023/01/15 07:50:58;;;;;;;8.18;5.15;;;;;;;6.70;59.34;97551.25;5020746;28;20038;-67
2023/01/15 07:53:23;;;;;;;6.85;4.28;;;;;;;6.68;59.32;97556.19;4967674;28;20030;-67
2023/01/15 07:55:49;;;;;;;9.18;4.97;;;;;;;6.66;59.55;97542.84;4969647;28;20034;-68
2023/01/15 07:58:14;;;;;;;10.10;5.22;;;;;;;6.67;59.72;97549.13;4968611;28;20035;-68
2023/01/15 08:00:39;;;;;;;7.25;4.05;;;;;;;6.66;59.55;97548.28;4968409;28;20039;-68
2023/01/15 08:03:05;;;;;;;8.55;4.93;;;;;;;6.66;59.03;97545.56;4993929;28;20494;-68
2023/01/15 08:05:31;;;;;;;5.93;4.40;;;;;;;6.65;59.50;97543.94;4968016;28;20034;-68
2023/01/15 08:07:56;;;;;;;9.73;5.25;;;;;;;6.65;59.16;97543.16;4966791;28;20031;-67
2023/01/15 08:10:21;;;;;;;7.35;4.03;;;;;;;6.64;59.63;97549.69;4968902;28;20071;-67
2023/01/15 08:15:39;;;;;;;8.02;4.18;;;;;;;6.66;59.31;97542.03;4968149;28;20181;-67
2023/01/15 08:18:05;;;;;;;8.25;5.15;;;;;;;6.65;58.81;97549.41;4967938;28;20045;-67
2023/01/15 08:20:33;;;;;;;7.57;4.32;;;;;;;6.64;58.96;97544.25;4984278;28;20494;-67
2023/01/15 08:23:00;;;;;;;8.38;4.60;;;;;;;6.66;59.26;97553.75;4989097;28;20194;-68
2023/01/15 08:25:25;;;;;;;12.13;6.30;;;;;;;6.68;58.99;97564.38;4967990;28;20031;-69
2023/01/15 08:27:52;;;;;;;8.48;3.95;;;;;;;6.66;59.00;97552.94;4967634;28;20015;-67
2023/01/15 08:30:20;;;;;;;7.93;4.45;;;;;;;6.66;58.79;97551.00;5016494;28;20096;-68
2023/01/15 08:32:46;;;;;;;8.57;5.00;;;;;;;6.67;58.76;97562.75;4966273;28;20026;-69
2023/01/15 08:35:12;;;;;;;7.97;4.90;;;;;;;6.68;59.26;97556.19;4974940;28;20095;-69
2023/01/15 08:37:38;;;;;;;8.30;4.07;;;;;;;6.67;59.11;97544.47;4996667;28;20073;-68
2023/01/15 08:40:04;;;;;;;10.73;4.88;;;;;;;6.68;59.07;97540.63;4967322;28;20479;-68
2023/01/15 08:42:30;;;;;;;10.88;6.22;;;;;;;6.68;58.79;97528.94;4967803;28;20126;-69
2023/01/15 08:44:55;;;;;;;10.15;5.43;;;;;;;6.69;58.60;97536.81;4979479;28;20059;-68
2023/01/15 08:47:20;;;;;;;8.85;5.10;;;;;;;6.70;58.91;97526.72;5004589;28;20045;-69
2023/01/15 08:49:47;;;;;;;9.25;4.97;;;;;;;6.71;58.79;97512.00;4968334;28;20046;-68
2023/01/15 08:52:13;;;;;;;9.45;4.35;;;;;;;6.73;58.78;97503.53;4966439;28;20400;-69
2023/01/15 08:54:39;;;;;;;8.55;5.18;;;;;;;6.77;58.98;97507.28;4966161;28;20030;-70
2023/01/15 08:57:04;;;;;;;8.02;4.32;;;;;;;6.80;58.65;97501.25;4967701;28;20514;-69
2023/01/15 08:59:30;;;;;;;9.25;4.20;;;;;;;6.80;58.28;97488.41;4966244;28;20039;-69
2023/01/15 09:01:55;;;;;;;8.63;4.95;;;;;;;6.83;58.72;97489.75;4965472;28;20687;-69
2023/01/15 09:04:21;;;;;;;9.27;4.40;;;;;;;6.87;58.70;97484.50;4966081;28;20031;-69
2023/01/15 09:06:47;;;;;;;9.95;4.80;;;;;;;6.89;58.42;97482.31;4966839;28;20027;-68
2023/01/15 09:09:13;;;;;;;8.20;3.95;;;;;;;6.93;58.44;97491.50;4967171;28;20023;-69
2023/01/15 09:11:40;;;;;;;8.13;3.70;;;;;;;6.98;57.74;97496.88;4967066;28;20026;-69
2023/01/15 09:14:09;;;;;;;7.35;3.95;;;;;;;7.00;57.40;97497.41;4966414;28;20828;-69
2023/01/15 09:16:36;;;;;;;7.70;3.08;;;;;;;7.03;57.40;97495.97;4967136;28;20037;-69
2023/01/15 09:19:02;;;;;;;6.85;3.70;;;;;;;7.07;57.68;97497.00;4964677;28;20559;-69
2023/01/15 09:21:28;;;;;;;7.88;3.88;;;;;;;7.09;57.20;97498.34;4967873;28;20356;-69
2023/01/15 09:23:53;;;;;;;5.80;3.33;;;;;;;7.13;56.97;97499.34;4964959;28;20030;-68
2023/01/15 09:26:31;;;;;;;6.97;2.97;;;;;;;7.14;57.58;97483.81;4966891;28;20034;-69
2023/01/15 09:28:58;;;;;;;6.40;3.78;;;;;;;7.20;57.05;97488.09;4962934;28;20031;-69
2023/01/15 09:31:24;;;;;;;5.88;3.80;;;;;;;7.23;56.72;97486.66;4965033;28;20185;-68
2023/01/15 09:33:49;;;;;;;6.18;2.90;;;;;;;7.22;57.58;97485.88;4964199;28;20035;-68
2023/01/15 09:36:18;;;;;;;5.65;2.95;;;;;;;7.24;57.30;97480.09;4966701;28;20050;-69
2023/01/15 09:38:43;;;;;;;4.55;2.67;;;;;;;7.24;57.27;97486.38;4963572;28;20471;-69
2023/01/15 09:44:11;;;;;;;5.93;3.13;;;;;;;7.25;57.50;97473.53;5016275;28;20120;-69
2023/01/15 09:46:39;;;;;;;5.63;3.05;;;;;;;7.26;57.61;97473.25;5026870;28;20028;-69
2023/01/15 09:49:04;;;;;;;8.82;6.03;;;;;;;7.28;56.81;97462.03;4967371;28;20556;-69
2023/01/15 09:51:55;;;;;;;10.85;7.70;;;;;;;7.25;57.49;97463.47;4966320;28;20419;-69
2023/01/15 09:54:42;;;;;;;6.40;4.40;;;;;;;7.26;57.41;97456.06;4965700;28;20030;-69
2023/01/15 09:57:12;;;;;;;6.80;3.90;;;;;;;7.23;57.81;97452.03;4961145;28;20042;-69
2023/01/15 09:59:42;;;;;;;3.88;3.03;;;;;;;7.22;58.15;97458.59;4986056;28;20042;-69
2023/01/15 10:02:24;;;;;;;3.92;3.17;;;;;;;7.20;58.21;97457.25;4960550;28;20581;-70
2023/01/15 10:05:03;;;;;;;4.75;3.05;;;;;;;7.19;58.44;97451.00;5005114;28;20395;-68
2023/01/15 10:07:48;;;;;;;4.90;2.90;;;;;;;7.18;58.42;97457.56;4963160;28;20073;-69
2023/01/15 10:10:18;;;;;;;8.57;4.28;;;;;;;7.19;58.52;97447.47;4968567;28;20105;-69
2023/01/15 10:12:49;;;;;;;6.40;3.42;;;;;;;7.17;58.60;97446.94;4963224;28;20046;-68
2023/01/15 10:15:26;;;;;;;7.05;3.67;;;;;;;7.11;58.88;97438.06;4970064;28;20027;-68
2023/01/15 10:17:55;;;;;;;8.98;4.82;;;;;;;7.08;58.96;97434.03;4974860;28;20074;-68
2023/01/15 10:20:28;;;;;;;7.43;4.80;;;;;;;7.08;59.13;97434.03;4991288;28;20049;-68
2023/01/15 10:23:20;;;;;;;8.82;4.97;;;;;;;7.07;59.43;97420.69;4980942;28;20033;-69
2023/01/15 10:25:52;;;;;;;8.10;3.78;;;;;;;7.09;59.51;97424.75;4964736;28;20027;-69
2023/01/15 10:28:58;;;;;;;7.28;4.22;;;;;;;7.07;59.62;97410.59;4996784;28;20472;-69
2023/01/15 10:31:37;;;;;;;6.97;3.55;;;;;;;7.08;59.80;97412.22;4974138;28;20499;-69
2023/01/15 10:34:15;;;;;;;11.45;4.80;;;;;;;7.09;59.93;97416.56;4969445;28;20068;-69
2023/01/15 10:36:50;;;;;;;10.27;5.25;;;;;;;7.08;59.81;97412.22;4952904;28;20058;-69
2023/01/15 10:39:42;;;;;;;19.25;10.18;;;;;;;7.09;60.04;97415.72;4967582;28;20023;-69
2023/01/15 10:42:31;;;;;;;9.88;5.95;;;;;;;7.08;60.35;97414.13;5019139;28;20048;-69
2023/01/15 10:45:18;;;;;;;6.32;3.80;;;;;;;7.10;60.27;97410.00;4988619;28;20495;-69
2023/01/15 10:47:50;;;;;;;7.43;5.82;;;;;;;7.12;60.73;97401.50;5000898;28;20065;-69
2023/01/15 10:50:21;;;;;;;6.38;4.30;;;;;;;7.12;60.82;97396.88;4972261;28;20039;-69
2023/01/15 10:53:06;;;;;;;6.78;4.03;;;;;;;7.12;60.89;97391.41;4965216;28;20019;-69
2023/01/15 10:55:38;;;;;;;6.15;4.20;;;;;;;7.13;61.21;97386.75;4997408;28;20038;-69
2023/01/15 10:58:24;;;;;;;15.57;7.47;;;;;;;7.10;60.82;97379.19;4974053;28;20031;-69
2023/01/15 11:00:57;;;;;;;7.60;4.70;;;;;;;7.13;61.35;97365.75;4990136;28;20046;-69
2023/01/15 11:03:37;;;;;;;9.13;5.80;;;;;;;7.18;61.36;97356.69;4966809;28;20281;-69
2023/01/15 11:06:04;;;;;;;;;;;;;;;7.21;61.42;97357.97;4968662;28;20047;-69
2023/01/15 11:08:31;;;;;;;7.15;4.30;;;;;;;7.20;61.26;97350.91;4967497;28;19941;-69
2023/01/15 11:11:12;;;;;;;8.63;3.92;;;;;;;7.19;60.79;97332.94;4968038;28;20551;-69
2023/01/15 11:19:37;;;;;;;12.10;6.03;;;;;;;7.25;61.64;97302.56;4986787;28;20088;-68
2023/01/15 11:22:20;;;;;;;9.73;4.63;;;;;;;7.27;61.76;97302.25;4969591;28;20110;-68
2023/01/15 11:24:47;;;;;;;8.15;4.80;;;;;;;7.30;62.12;97301.63;4968978;28;20033;-68
2023/01/15 11:27:16;;;;;;;12.93;5.63;;;;;;;7.33;61.76;97295.56;4999718;28;20439;-68
2023/01/15 11:29:43;;;;;;;10.05;6.93;;;;;;;7.37;61.74;97295.75;5011023;28;20026;-69
2023/01/15 11:32:28;;;;;;;11.57;7.63;;;;;;;7.38;61.81;97306.38;4997222;28;20396;-68
2023/01/15 11:34:56;;;;;;;13.27;8.38;;;;;;;7.42;61.29;97301.94;5033989;28;20038;-68
2023/01/15 11:37:22;;;;;;;11.73;6.90;;;;;;;7.47;61.14;97302.94;4992066;28;20031;-68
2023/01/15 11:39:55;;;;;;;9.63;5.28;;;;;;;7.53;61.03;97302.53;5007253;28;20038;-68
2023/01/15 11:50:56;;;;;;;23.10;9.13;;;;;;;7.73;60.71;97305.97;4979635;28;20049;-68
2023/01/15 11:53:28;;;;;;;22.30;8.43;;;;;;;7.78;60.29;97294.09;4974215;28;20058;-69
2023/01/15 11:55:59;;;;;;;20.40;9.00;;;;;;;7.80;60.26;97292.66;4995898;28;20030;-69
2023/01/15 11:58:27;;;;;;;10.85;6.50;;;;;;;7.85;60.49;97291.78;4968577;28;20173;-68
2023/01/15 12:00:57;;;;;;;11.98;6.43;;;;;;;7.88;60.14;97286.50;4968166;28;20041;-69
2023/01/15 12:03:26;;;;;;;18.58;9.63;;;;;;;7.90;60.19;97295.19;4963506;28;20073;-68
2023/01/15 12:05:55;;;;;;;10.55;6.70;;;;;;;7.92;59.61;97283.16;4991250;28;20111;-69
2023/01/15 12:08:42;;;;;;;7.28;4.28;;;;;;;7.90;60.20;97284.25;4971992;28;20062;-69
2023/01/15 12:11:24;;;;;;;7.05;4.95;;;;;;;7.95;60.13;97279.81;4988291;28;20029;-69
2023/01/15 12:14:08;;;;;;;9.25;4.85;;;;;;;7.97;60.45;97270.19;4978786;28;20058;-71
2023/01/15 12:16:53;;;;;;;14.20;7.40;;;;;;;8.00;60.22;97279.69;4965340;28;20045;-70
2023/01/15 12:19:36;;;;;;;12.18;7.47;;;;;;;8.01;60.16;97279.38;4978633;28;20023;-69
2023/01/15 12:22:36;;;;;;;15.80;10.65;;;;;;;8.01;59.88;97273.13;4990513;28;20023;-69
2023/01/15 12:25:49;;;;;;;10.35;7.22;;;;;;;8.00;59.90;97271.50;4974886;28;20035;-69
2023/01/15 12:28:24;;;;;;;11.80;5.85;;;;;;;8.03;60.22;97271.69;4998044;28;20039;-69
2023/01/15 12:31:02;;;;;;;9.85;5.50;;;;;;;8.02;59.71;97272.78;4975365;28;20019;-68
2023/01/15 12:33:47;;;;;;;10.35;4.95;;;;;;;8.01;60.33;97263.00;4968376;28;20487;-69
2023/01/15 12:36:16;;;;;;;8.63;4.22;;;;;;;7.99;60.43;97254.31;4969108;28;20367;-69
2023/01/15 12:38:49;;;;;;;5.15;3.38;;;;;;;8.00;60.08;97261.38;4964884;28;20034;-69
2023/01/15 12:44:59;;;;;;;6.97;4.18;;;;;;;7.97;59.88;97253.00;4964296;28;20415;-72